Time;durP1;ratioP1;P1;durP2;ratioP2;P2;SDS_P1;SDS_P2;PMS_P1;PMS_P2;Temp;Humidity;BMP_temperature;BMP_pressure;BME280_temperature;BME280_humidity;BME280_pressure;Samples;Min_cycle;Max_cycle;Signal;HPM_P1;HPM_P2
2023/08/28 00:02:04;;;;;;;4.15;3.00;;;11.90;99.90;;;;;;5036850;28;20042;-86
2023/08/28 00:04:29;;;;;;;4.40;3.05;;;11.90;99.90;;;;;;5028810;28;20077;-86
2023/08/28 00:06:55;;;;;;;3.67;2.90;;;11.90;99.90;;;;;;5032637;28;20032;-86
2023/08/28 00:09:21;;;;;;;3.25;2.88;;;11.90;99.90;;;;;;5031990;28;20044;-85
2023/08/28 00:11:46;;;;;;;4.25;3.03;;;11.90;99.90;;;;;;5037666;28;20013;-85
2023/08/28 00:14:12;;;;;;;3.20;2.90;;;12.00;99.90;;;;;;5034764;28;20018;-86
2023/08/28 00:16:37;;;;;;;3.92;3.22;;;11.90;99.90;;;;;;5041376;28;20194;-86
2023/08/28 00:19:03;;;;;;;2.97;2.78;;;11.90;99.90;;;;;;5037638;28;20033;-86
2023/08/28 00:21:30;;;;;;;3.47;2.95;;;12.00;99.90;;;;;;5030329;28;20160;-86
2023/08/28 00:23:55;;;;;;;3.45;3.20;;;11.90;99.90;;;;;;5027326;28;20026;-85
2023/08/28 00:26:21;;;;;;;4.13;3.28;;;12.00;99.90;;;;;;5027151;28;20021;-86
2023/08/28 00:28:49;;;;;;;4.80;4.35;;;12.00;99.90;;;;;;5030241;28;20029;-86
2023/08/28 00:31:14;;;;;;;5.32;3.13;;;11.90;99.90;;;;;;5027813;28;20041;-86
2023/08/28 00:33:40;;;;;;;4.15;3.75;;;11.90;99.90;;;;;;5031235;28;20402;-84
2023/08/28 00:36:06;;;;;;;4.45;3.03;;;11.90;99.90;;;;;;5029585;28;20037;-85
2023/08/28 00:38:32;;;;;;;4.05;3.65;;;11.90;99.90;;;;;;5029774;28;20041;-85
2023/08/28 00:40:57;;;;;;;3.90;3.25;;;12.00;99.90;;;;;;5035731;28;20040;-84
2023/08/28 00:43:23;;;;;;;4.45;3.63;;;12.00;99.90;;;;;;5035966;28;20519;-84
2023/08/28 00:45:49;;;;;;;4.35;3.95;;;12.00;99.90;;;;;;5035414;28;20029;-86
2023/08/28 00:48:16;;;;;;;6.38;3.78;;;12.00;99.90;;;;;;5033797;28;20017;-84
2023/08/28 00:50:43;;;;;;;4.40;4.00;;;12.00;99.90;;;;;;5022621;28;20050;-86
2023/08/28 00:53:11;;;;;;;4.45;4.05;;;12.00;99.90;;;;;;5006360;28;20070;-86
2023/08/28 00:55:37;;;;;;;6.60;4.53;;;12.00;99.90;;;;;;5013007;28;20470;-87
2023/08/28 00:58:03;;;;;;;5.03;4.25;;;12.00;99.90;;;;;;5015962;28;20049;-87
2023/08/28 01:00:29;;;;;;;3.95;3.65;;;12.00;99.90;;;;;;5020277;28;20050;-87
2023/08/28 01:02:57;;;;;;;3.75;3.35;;;12.00;99.90;;;;;;5023961;28;20080;-86
2023/08/28 01:05:35;;;;;;;4.95;4.43;;;12.00;99.90;;;;;;5025269;28;20089;-86
2023/08/28 01:08:18;;;;;;;4.35;3.95;;;12.00;99.90;;;;;;5012269;28;20026;-86
2023/08/28 01:10:54;;;;;;;5.60;4.00;;;12.00;99.90;;;;;;5024395;28;20112;-86
2023/08/28 01:13:30;;;;;;;4.80;4.38;;;11.90;99.90;;;;;;5019108;28;20125;-86
2023/08/28 01:15:57;;;;;;;4.85;4.13;;;11.90;99.90;;;;;;5019445;28;20025;-86
2023/08/28 01:18:22;;;;;;;4.78;4.30;;;11.90;99.90;;;;;;5019975;28;20034;-87
2023/08/28 01:20:49;;;;;;;5.28;3.95;;;12.00;99.90;;;;;;5022661;28;20112;-87
2023/08/28 01:23:42;;;;;;;4.30;3.90;;;12.00;99.90;;;;;;5018048;28;20018;-87
2023/08/28 01:26:07;;;;;;;3.90;3.40;;;12.00;99.90;;;;;;5012152;28;20026;-87
2023/08/28 01:28:33;;;;;;;5.07;4.30;;;11.90;99.90;;;;;;5021749;28;20022;-87
2023/08/28 01:30:59;;;;;;;4.60;3.92;;;11.90;99.90;;;;;;5023844;28;20392;-86
2023/08/28 01:33:24;;;;;;;5.30;4.13;;;11.90;99.90;;;;;;5019962;28;20029;-86
2023/08/28 01:36:13;;;;;;;4.95;3.92;;;11.90;99.90;;;;;;5021462;28;20022;-87
2023/08/28 01:38:49;;;;;;;5.43;4.45;;;11.90;99.90;;;;;;5020501;28;20021;-87
2023/08/28 01:41:18;;;;;;;5.88;4.45;;;11.90;99.90;;;;;;5023478;28;20087;-87
2023/08/28 01:43:48;;;;;;;6.32;4.40;;;11.90;99.90;;;;;;5018675;28;20037;-87
2023/08/28 01:46:15;;;;;;;6.43;3.83;;;11.90;99.90;;;;;;5024681;28;20029;-87
2023/08/28 01:48:44;;;;;;;5.15;4.32;;;11.90;99.90;;;;;;5018966;28;20439;-87
2023/08/28 01:51:12;;;;;;;6.32;4.05;;;12.00;99.90;;;;;;5023396;28;20128;-86
2023/08/28 01:53:38;;;;;;;4.85;4.35;;;12.00;99.90;;;;;;5014376;28;20056;-87
2023/08/28 01:56:09;;;;;;;6.43;4.75;;;12.00;99.90;;;;;;5017132;28;20058;-87
2023/08/28 01:58:43;;;;;;;5.90;4.63;;;12.00;99.90;;;;;;5022331;28;20029;-87
2023/08/28 02:01:09;;;;;;;4.55;4.15;;;12.00;99.90;;;;;;5017025;28;20599;-86
2023/08/28 02:03:38;;;;;;;5.03;4.53;;;12.00;99.90;;;;;;5013380;28;20104;-87
2023/08/28 02:06:03;;;;;;;4.95;4.45;;;12.00;99.90;;;;;;5018613;28;20184;-87
2023/08/28 02:08:29;;;;;;;6.25;5.10;;;12.10;99.90;;;;;;5017227;28;20132;-86
2023/08/28 02:10:55;;;;;;;4.88;4.38;;;12.10;99.90;;;;;;5024989;28;20018;-87
2023/08/28 02:13:21;;;;;;;5.43;4.72;;;12.10;99.90;;;;;;5036657;28;20030;-88
2023/08/28 02:15:47;;;;;;;5.65;4.43;;;12.10;99.90;;;;;;5040173;28;20026;-88
2023/08/28 02:18:12;;;;;;;5.30;4.75;;;12.10;99.90;;;;;;5033717;28;20598;-87
2023/08/28 02:20:38;;;;;;;5.93;4.68;;;12.10;99.90;;;;;;5019633;28;20018;-87
2023/08/28 02:23:03;;;;;;;5.07;4.57;;;12.20;99.90;;;;;;5019548;28;20117;-87
2023/08/28 02:25:29;;;;;;;5.53;4.38;;;12.20;99.90;;;;;;5029139;28;20512;-87
2023/08/28 02:27:55;;;;;;;6.22;4.22;;;12.20;99.90;;;;;;5020145;28;20775;-87
2023/08/28 02:30:20;;;;;;;4.78;4.38;;;12.30;99.90;;;;;;5023667;28;20038;-87
2023/08/28 02:32:46;;;;;;;7.13;4.68;;;12.30;99.90;;;;;;5029886;28;20022;-86
2023/08/28 02:35:11;;;;;;;4.65;4.25;;;12.30;99.90;;;;;;5024775;28;20034;-86
2023/08/28 02:37:38;;;;;;;4.82;4.32;;;12.30;99.90;;;;;;5026370;28;20111;-87
2023/08/28 02:40:04;;;;;;;5.10;4.60;;;12.30;99.90;;;;;;5027270;28;20692;-86
2023/08/28 02:42:30;;;;;;;4.68;4.15;;;12.40;99.90;;;;;;5027196;28;20772;-87
2023/08/28 02:44:55;;;;;;;6.65;4.47;;;12.40;99.90;;;;;;5022336;28;20033;-87
2023/08/28 02:47:23;;;;;;;9.27;4.75;;;12.40;99.90;;;;;;5028631;28;20048;-87
2023/08/28 02:49:48;;;;;;;6.07;4.10;;;12.40;99.90;;;;;;5021050;28;20018;-86
2023/08/28 02:52:14;;;;;;;5.13;4.57;;;12.40;99.90;;;;;;5025812;28;20111;-87
2023/08/28 02:54:40;;;;;;;4.38;3.97;;;12.40;99.90;;;;;;5026357;28;20053;-86
2023/08/28 02:57:05;;;;;;;5.60;3.90;;;12.40;99.90;;;;;;5028529;28;20031;-86
2023/08/28 02:59:31;;;;;;;4.72;3.53;;;12.40;99.90;;;;;;5016233;28;20511;-87
2023/08/28 03:01:57;;;;;;;3.67;3.38;;;12.50;99.90;;;;;;5025709;28;20030;-87
2023/08/28 03:04:23;;;;;;;3.60;3.30;;;12.50;99.90;;;;;;5021594;28;20029;-86
2023/08/28 03:06:48;;;;;;;4.15;3.75;;;12.50;99.90;;;;;;5027375;28;20377;-87
2023/08/28 03:09:14;;;;;;;3.95;3.20;;;12.50;99.90;;;;;;5022588;28;20081;-87
2023/08/28 03:11:40;;;;;;;4.38;3.20;;;12.50;99.90;;;;;;5029383;28;20022;-87
2023/08/28 03:14:06;;;;;;;7.10;3.67;;;12.50;99.90;;;;;;5000144;28;20052;-86
2023/08/28 03:16:32;;;;;;;5.63;3.85;;;12.60;99.90;;;;;;5020952;28;20049;-86
2023/08/28 03:18:58;;;;;;;3.50;3.17;;;12.60;99.90;;;;;;5027822;28;20087;-86
2023/08/28 03:21:24;;;;;;;3.88;3.47;;;12.60;99.90;;;;;;5025781;28;20018;-87
2023/08/28 03:23:49;;;;;;;4.40;3.70;;;12.60;99.90;;;;;;5019018;28;20026;-86
2023/08/28 03:26:15;;;;;;;4.65;3.25;;;12.70;99.90;;;;;;5022829;28;20026;-86
2023/08/28 03:28:41;;;;;;;5.93;3.38;;;12.70;99.90;;;;;;5027484;28;20421;-86
2023/08/28 03:31:06;;;;;;;4.50;3.10;;;12.70;99.90;;;;;;5019918;28;20481;-87
2023/08/28 03:33:35;;;;;;;8.15;3.33;;;12.70;99.90;;;;;;5027645;28;20603;-86
2023/08/28 03:36:01;;;;;;;3.50;3.20;;;12.70;99.90;;;;;;5022402;28;20448;-86
2023/08/28 03:38:26;;;;;;;5.28;3.08;;;12.70;99.90;;;;;;5028409;28;20257;-86
2023/08/28 03:40:52;;;;;;;3.40;3.10;;;12.80;99.90;;;;;;5013395;28;20033;-85
2023/08/28 03:43:18;;;;;;;5.50;2.80;;;12.70;99.90;;;;;;5028399;28;20025;-86
2023/08/28 03:45:44;;;;;;;3.20;2.90;;;12.80;99.90;;;;;;5021699;28;20036;-86
2023/08/28 03:48:09;;;;;;;5.90;3.10;;;12.80;99.90;;;;;;5016901;28;20022;-87
2023/08/28 03:50:35;;;;;;;3.05;2.72;;;12.80;99.90;;;;;;5027303;28;20018;-85
2023/08/28 03:53:01;;;;;;;6.90;2.78;;;12.80;99.90;;;;;;5021375;28;20333;-87
2023/08/28 03:55:29;;;;;;;5.78;2.70;;;12.80;99.90;;;;;;5026090;28;20025;-87
2023/08/28 03:57:55;;;;;;;3.22;2.42;;;12.80;99.90;;;;;;5022982;28;20044;-86
2023/08/28 04:00:21;;;;;;;3.95;2.45;;;12.90;99.90;;;;;;5028548;28;20033;-86
2023/08/28 04:02:47;;;;;;;5.03;2.60;;;12.90;99.90;;;;;;5024234;28;20037;-86
2023/08/28 04:05:13;;;;;;;2.42;2.22;;;12.90;99.90;;;;;;5020136;28;20021;-87
2023/08/28 04:07:40;;;;;;;2.85;2.30;;;12.90;99.90;;;;;;5024502;28;20079;-87
2023/08/28 04:10:06;;;;;;;4.60;2.90;;;12.90;99.90;;;;;;5018613;28;20068;-87
2023/08/28 04:12:32;;;;;;;4.25;2.25;;;12.90;99.90;;;;;;5030381;28;20025;-87
2023/08/28 04:14:58;;;;;;;3.33;2.35;;;12.90;99.90;;;;;;5023274;28;20080;-86
2023/08/28 04:17:24;;;;;;;6.18;2.78;;;12.90;99.90;;;;;;5021057;28;20022;-86
2023/08/28 04:19:51;;;;;;;3.75;2.75;;;12.90;99.90;;;;;;5021314;28;20022;-86
2023/08/28 04:22:18;;;;;;;5.28;2.58;;;12.80;99.90;;;;;;5021139;28;20029;-86
2023/08/28 04:24:48;;;;;;;3.08;2.25;;;12.80;99.90;;;;;;5026694;28;20084;-86
2023/08/28 04:27:13;;;;;;;4.85;2.72;;;12.80;99.90;;;;;;5019691;28;20052;-86
2023/08/28 04:29:40;;;;;;;4.05;2.78;;;12.80;99.90;;;;;;5024952;28;20017;-87
2023/08/28 04:32:06;;;;;;;2.45;2.25;;;12.70;99.90;;;;;;5017815;28;20067;-88
2023/08/28 04:34:31;;;;;;;3.72;3.05;;;12.70;99.90;;;;;;5020435;28;20496;-86
2023/08/28 04:36:57;;;;;;;2.90;2.70;;;12.80;99.90;;;;;;5025129;28;20059;-87
2023/08/28 04:39:23;;;;;;;3.85;3.55;;;12.80;99.90;;;;;;5022607;28;20033;-86
2023/08/28 04:41:52;;;;;;;8.50;4.00;;;12.70;99.90;;;;;;5023768;28;20044;-87
2023/08/28 04:44:21;;;;;;;5.90;3.97;;;12.70;99.90;;;;;;5023094;28;20060;-87
2023/08/28 04:46:47;;;;;;;6.60;4.95;;;12.80;99.90;;;;;;5024889;28;20515;-86
2023/08/28 04:49:13;;;;;;;5.50;5.00;;;12.80;99.90;;;;;;5021940;28;20033;-86
2023/08/28 04:51:39;;;;;;;6.10;5.28;;;12.80;99.90;;;;;;5020890;28;20477;-86
2023/08/28 04:54:04;;;;;;;6.13;5.55;;;12.80;99.90;;;;;;5021747;28;20057;-86
2023/08/28 04:56:30;;;;;;;6.70;6.10;;;12.90;99.90;;;;;;5015809;28;20029;-86
2023/08/28 04:58:56;;;;;;;8.35;6.55;;;12.90;99.90;;;;;;5024010;28;20021;-87
2023/08/28 05:01:21;;;;;;;6.95;6.20;;;12.90;99.90;;;;;;5022282;28;20049;-87
2023/08/28 05:03:47;;;;;;;7.13;6.43;;;12.90;99.90;;;;;;5022390;28;20021;-86
2023/08/28 05:06:12;;;;;;;7.05;5.72;;;12.90;99.90;;;;;;5017126;28;20480;-87
2023/08/28 05:08:38;;;;;;;8.25;6.43;;;12.90;99.90;;;;;;5021940;28;20025;-87
2023/08/28 05:11:04;;;;;;;8.50;7.63;;;12.90;99.90;;;;;;5022544;28;20053;-85
2023/08/28 05:13:30;;;;;;;8.98;8.13;;;12.80;99.90;;;;;;5025206;28;20026;-86
2023/08/28 05:15:56;;;;;;;10.40;7.60;;;12.80;99.90;;;;;;5022575;28;20380;-86
2023/08/28 05:18:22;;;;;;;9.38;7.15;;;12.80;99.90;;;;;;5019195;28;20065;-86
2023/08/28 05:20:47;;;;;;;7.93;6.60;;;12.90;99.90;;;;;;5018318;28;20029;-87
2023/08/28 05:23:13;;;;;;;6.85;6.15;;;12.90;99.90;;;;;;5022417;28;20030;-87
2023/08/28 05:25:39;;;;;;;6.10;5.47;;;12.80;99.90;;;;;;5014618;28;20029;-87
2023/08/28 05:28:05;;;;;;;5.65;5.03;;;12.80;99.90;;;;;;5017913;28;20080;-86
2023/08/28 05:30:30;;;;;;;5.00;4.50;;;12.90;99.90;;;;;;5024205;28;20088;-87
2023/08/28 05:32:56;;;;;;;4.80;4.40;;;12.90;99.90;;;;;;5020724;28;20022;-86
2023/08/28 05:35:22;;;;;;;5.47;4.30;;;12.90;99.90;;;;;;5021811;28;20079;-86
2023/08/28 05:37:47;;;;;;;4.35;3.92;;;12.90;99.90;;;;;;5019088;28;20552;-87
2023/08/28 05:40:15;;;;;;;5.22;4.72;;;13.00;99.90;;;;;;5017778;28;20068;-88
2023/08/28 05:42:44;;;;;;;6.25;4.07;;;13.00;99.90;;;;;;5023428;28;20679;-86
2023/08/28 05:45:10;;;;;;;4.75;3.83;;;13.00;99.90;;;;;;5021770;28;20060;-86
2023/08/28 05:47:36;;;;;;;4.40;3.40;;;13.00;99.90;;;;;;5021128;28;20025;-87
2023/08/28 05:50:03;;;;;;;3.83;3.50;;;13.10;99.90;;;;;;5021967;28;20064;-86
2023/08/28 05:52:29;;;;;;;4.50;3.70;;;13.10;99.90;;;;;;5024775;28;20167;-85
2023/08/28 05:54:54;;;;;;;5.93;3.60;;;13.10;99.90;;;;;;5017734;28;20082;-86
2023/08/28 05:57:21;;;;;;;4.43;3.53;;;13.10;99.90;;;;;;5023164;28;20240;-87
2023/08/28 05:59:46;;;;;;;3.38;2.90;;;13.10;99.90;;;;;;5019976;28;20599;-86
2023/08/28 06:02:13;;;;;;;3.95;3.33;;;13.10;99.90;;;;;;5016016;28;20109;-86
2023/08/28 06:04:38;;;;;;;4.63;3.70;;;13.20;99.90;;;;;;5022375;28;20029;-86
2023/08/28 06:07:04;;;;;;;4.53;4.07;;;13.20;99.90;;;;;;5009850;28;20033;-85
2023/08/28 06:09:31;;;;;;;5.65;3.83;;;13.20;99.90;;;;;;5023187;28;20035;-88
2023/08/28 06:11:57;;;;;;;4.13;3.70;;;13.30;99.90;;;;;;5022670;28;20029;-86
2023/08/28 06:14:22;;;;;;;6.75;3.60;;;13.30;99.90;;;;;;5021602;28;20523;-86
2023/08/28 06:16:49;;;;;;;5.28;3.30;;;13.40;99.90;;;;;;5018493;28;20018;-86
2023/08/28 06:19:15;;;;;;;3.88;3.30;;;13.40;99.90;;;;;;5022065;28;20022;-86
2023/08/28 06:21:44;;;;;;;5.25;3.28;;;13.50;99.90;;;;;;5016345;28;20105;-87
2023/08/28 06:24:11;;;;;;;4.57;3.88;;;13.50;99.90;;;;;;5024368;28;20030;-87
2023/08/28 06:26:38;;;;;;;6.13;3.60;;;13.50;99.90;;;;;;5026730;28;20033;-86
2023/08/28 06:29:03;;;;;;;4.22;3.83;;;13.50;99.90;;;;;;5029533;28;20013;-87
2023/08/28 06:31:29;;;;;;;5.03;2.78;;;13.60;99.90;;;;;;5023355;28;20118;-86
2023/08/28 06:33:55;;;;;;;4.63;2.80;;;13.60;99.90;;;;;;5023037;28;20030;-87
2023/08/28 06:36:24;;;;;;;3.85;2.80;;;13.60;99.90;;;;;;5021882;28;20052;-87
2023/08/28 06:38:52;;;;;;;3.35;2.72;;;13.60;99.90;;;;;;5026923;28;20036;-87
2023/08/28 06:41:18;;;;;;;4.95;2.42;;;13.70;99.90;;;;;;5024595;28;20260;-87
2023/08/28 06:43:44;;;;;;;2.45;2.13;;;13.80;99.90;;;;;;5032458;28;20033;-87
2023/08/28 06:46:09;;;;;;;3.58;2.80;;;13.80;99.90;;;;;;5032557;28;20103;-86
2023/08/28 06:48:35;;;;;;;3.22;2.42;;;13.90;99.90;;;;;;5027863;28;20022;-86
2023/08/28 06:51:03;;;;;;;2.95;2.50;;;14.00;99.90;;;;;;5029751;28;20029;-87
2023/08/28 06:53:30;;;;;;;4.40;2.42;;;14.10;99.90;;;;;;5022210;28;20022;-88
2023/08/28 06:55:56;;;;;;;4.68;2.20;;;14.20;99.90;;;;;;5026743;28;20092;-88
2023/08/28 06:58:22;;;;;;;2.25;2.05;;;14.30;99.90;;;;;;5014038;28;20697;-87
2023/08/28 07:00:48;;;;;;;2.33;1.85;;;14.40;99.90;;;;;;5039538;28;20033;-87
2023/08/28 07:03:13;;;;;;;4.13;2.10;;;14.50;99.90;;;;;;5029137;28;20029;-86
2023/08/28 07:05:40;;;;;;;3.30;1.67;;;14.60;99.90;;;;;;5031475;28;20026;-87
2023/08/28 07:08:05;;;;;;;1.65;1.50;;;14.70;99.90;;;;;;5028714;28;20049;-87
2023/08/28 07:10:31;;;;;;;3.65;1.55;;;14.80;99.90;;;;;;5027303;28;20026;-86
2023/08/28 07:12:57;;;;;;;2.58;2.22;;;14.90;99.90;;;;;;5027195;28;20037;-86
2023/08/28 07:15:29;;;;;;;1.67;1.55;;;15.10;99.90;;;;;;5029820;28;20029;-88
2023/08/28 07:17:54;;;;;;;3.13;1.98;;;15.20;99.90;;;;;;5031124;28;20005;-86
2023/08/28 07:20:22;;;;;;;3.53;1.77;;;15.40;99.90;;;;;;5039186;28;20085;-86
2023/08/28 07:22:48;;;;;;;2.63;1.38;;;15.50;99.90;;;;;;5037025;28;20034;-86
2023/08/28 07:25:15;;;;;;;3.35;1.70;;;15.70;99.90;;;;;;5034047;28;20029;-86
2023/08/28 07:27:41;;;;;;;5.10;1.25;;;15.70;99.90;;;;;;5033094;28;20036;-86
2023/08/28 07:30:07;;;;;;;2.83;1.40;;;15.90;99.90;;;;;;5040605;28;20026;-87
2023/08/28 07:32:33;;;;;;;1.75;1.00;;;15.90;99.90;;;;;;5029612;28;20018;-86
2023/08/28 07:35:01;;;;;;;1.88;1.17;;;15.90;99.90;;;;;;5035866;28;20028;-86
2023/08/28 07:37:30;;;;;;;2.78;1.50;;;15.90;99.90;;;;;;5037898;28;20097;-86
2023/08/28 07:39:58;;;;;;;5.10;2.17;;;15.90;99.90;;;;;;5033072;28;20100;-87
2023/08/28 07:42:24;;;;;;;3.05;1.58;;;16.00;99.90;;;;;;5036431;28;20034;-85
2023/08/28 07:44:50;;;;;;;1.20;1.10;;;16.10;99.90;;;;;;5027100;28;20072;-86
2023/08/28 07:47:15;;;;;;;2.17;1.30;;;16.10;99.90;;;;;;5026637;28;20117;-86
2023/08/28 07:49:42;;;;;;;3.63;1.08;;;16.30;99.90;;;;;;5023423;28;20116;-86
2023/08/28 07:52:08;;;;;;;1.85;1.13;;;16.40;99.90;;;;;;5028222;28;20528;-87
2023/08/28 07:54:33;;;;;;;3.63;1.40;;;16.50;99.90;;;;;;5023309;28;20064;-87
2023/08/28 07:56:59;;;;;;;2.72;0.85;;;16.60;99.90;;;;;;5036266;28;20071;-86
2023/08/28 07:59:25;;;;;;;1.90;0.80;;;16.70;99.90;;;;;;5031996;28;20021;-85
2023/08/28 08:01:51;;;;;;;2.63;1.60;;;16.70;99.90;;;;;;5024345;28;20474;-85
2023/08/28 08:04:17;;;;;;;1.63;1.00;;;16.70;99.90;;;;;;5018119;28;20126;-86
2023/08/28 08:06:42;;;;;;;3.08;1.02;;;16.80;99.90;;;;;;5026189;28;20061;-85
2023/08/28 08:09:09;;;;;;;2.20;0.80;;;17.00;99.90;;;;;;5026265;28;20037;-84
2023/08/28 08:11:35;;;;;;;1.60;0.85;;;17.20;99.90;;;;;;5023738;28;20145;-83
2023/08/28 08:14:00;;;;;;;3.55;0.98;;;17.30;99.90;;;;;;5028746;28;20036;-86
2023/08/28 08:16:26;;;;;;;2.63;0.85;;;17.50;99.90;;;;;;5027501;28;20046;-86
2023/08/28 08:18:52;;;;;;;2.35;0.95;;;17.50;99.90;;;;;;5033993;28;20113;-86
2023/08/28 08:21:18;;;;;;;1.20;0.73;;;17.60;99.90;;;;;;5027904;28;20042;-86
2023/08/28 08:23:43;;;;;;;2.90;0.82;;;17.50;99.90;;;;;;5028788;28;20038;-86
2023/08/28 08:26:09;;;;;;;1.67;1.08;;;17.40;99.90;;;;;;5017496;28;20037;-85
2023/08/28 08:28:35;;;;;;;2.90;1.17;;;17.50;99.90;;;;;;5023631;28;20156;-86
2023/08/28 08:31:00;;;;;;;1.38;0.75;;;17.50;99.90;;;;;;5019956;28;20066;-86
2023/08/28 08:33:26;;;;;;;1.48;0.70;;;17.60;99.90;;;;;;5026334;28;20028;-87
2023/08/28 08:35:52;;;;;;;2.55;0.77;;;17.60;99.90;;;;;;5029928;28;20096;-86
2023/08/28 08:38:18;;;;;;;3.03;0.90;;;17.60;99.90;;;;;;5033005;28;20032;-86
2023/08/28 08:40:44;;;;;;;3.13;0.80;;;17.60;99.90;;;;;;5024821;28;20087;-87
2023/08/28 08:43:10;;;;;;;2.30;1.27;;;17.50;99.90;;;;;;5022260;28;20030;-85
2023/08/28 08:45:44;;;;;;;2.35;0.82;;;17.40;99.90;;;;;;5026351;28;20087;-86
2023/08/28 08:48:14;;;;;;;1.98;0.80;;;17.30;99.90;;;;;;5019591;28;20018;-86
2023/08/28 08:50:40;;;;;;;3.60;0.88;;;17.30;99.90;;;;;;5027767;28;20032;-86
2023/08/28 08:53:11;;;;;;;5.55;0.93;;;17.30;99.90;;;;;;5021883;28;20030;-86
2023/08/28 08:55:49;;;;;;;4.03;1.00;;;17.50;99.90;;;;;;5028817;28;20036;-85
2023/08/28 08:58:16;;;;;;;1.63;0.85;;;17.70;99.90;;;;;;5020833;28;20109;-86
2023/08/28 09:00:45;;;;;;;4.50;1.33;;;18.00;99.90;;;;;;5024666;28;20041;-86
2023/08/28 09:03:13;;;;;;;1.83;0.70;;;18.20;99.90;;;;;;5022607;28;20032;-85
2023/08/28 09:05:39;;;;;;;1.67;1.08;;;18.30;99.90;;;;;;5022568;28;20496;-85
2023/08/28 09:08:06;;;;;;;1.60;0.65;;;18.40;99.90;;;;;;5023917;28;20026;-84
2023/08/28 09:10:32;;;;;;;2.85;1.08;;;18.40;99.90;;;;;;5015023;28;20025;-86
2023/08/28 09:12:58;;;;;;;1.95;0.70;;;18.40;99.90;;;;;;5026288;28;20061;-86
2023/08/28 09:15:24;;;;;;;3.40;0.90;;;18.50;99.90;;;;;;5021301;28;20022;-86
2023/08/28 09:17:51;;;;;;;1.40;0.73;;;18.60;99.90;;;;;;5015211;28;20033;-86
2023/08/28 09:20:17;;;;;;;0.95;0.88;;;18.80;99.90;;;;;;5020698;28;20465;-86
2023/08/28 09:22:51;;;;;;;1.23;0.82;;;18.80;99.90;;;;;;5021559;28;20048;-86
2023/08/28 09:25:17;;;;;;;3.10;0.70;;;18.70;99.90;;;;;;5024062;28;20142;-86
2023/08/28 09:27:44;;;;;;;1.15;0.60;;;18.60;99.90;;;;;;5015412;28;20022;-86
2023/08/28 09:30:25;;;;;;;4.75;1.00;;;18.40;99.90;;;;;;5023653;28;20389;-87
2023/08/28 09:32:51;;;;;;;1.10;0.70;;;18.10;99.90;;;;;;5024861;28;20124;-87
2023/08/28 09:35:19;;;;;;;2.92;0.73;;;17.90;99.90;;;;;;5016759;28;20037;-87
2023/08/28 09:37:54;;;;;;;2.03;0.98;;;17.60;99.90;;;;;;5021962;28;20048;-87
2023/08/28 09:40:27;;;;;;;2.08;0.90;;;17.40;99.90;;;;;;5022444;28;20040;-87
2023/08/28 09:42:52;;;;;;;3.40;1.00;;;17.30;99.90;;;;;;5020742;28;20603;-87
2023/08/28 09:45:18;;;;;;;2.70;1.05;;;17.20;99.90;;;;;;5016764;28;20025;-87
2023/08/28 09:47:44;;;;;;;2.03;0.90;;;17.10;99.90;;;;;;5021238;28;20374;-87
2023/08/28 09:50:10;;;;;;;2.40;1.00;;;17.00;99.90;;;;;;5022739;28;20067;-86
2023/08/28 09:52:36;;;;;;;2.03;0.93;;;16.90;99.90;;;;;;5022547;28;20017;-86
2023/08/28 09:55:05;;;;;;;2.60;0.90;;;16.90;99.90;;;;;;5019239;28;20021;-87
2023/08/28 09:57:31;;;;;;;4.18;1.40;;;16.80;99.90;;;;;;5025848;28;20033;-87
2023/08/28 09:59:58;;;;;;;3.00;1.30;;;16.70;99.90;;;;;;5021949;28;20029;-87
2023/08/28 10:02:25;;;;;;;1.60;1.50;;;16.70;99.90;;;;;;5023505;28;20034;-87
2023/08/28 10:04:52;;;;;;;2.72;1.17;;;16.70;99.90;;;;;;5015810;28;20021;-87
2023/08/28 10:07:22;;;;;;;2.47;1.42;;;16.90;99.90;;;;;;5024425;28;20022;-87
2023/08/28 10:09:51;;;;;;;2.40;1.20;;;17.00;99.90;;;;;;5011436;28;20026;-87
2023/08/28 10:12:17;;;;;;;2.28;1.00;;;17.00;99.90;;;;;;5026532;28;20070;-86
2023/08/28 10:14:44;;;;;;;2.47;1.05;;;17.00;99.90;;;;;;5019510;28;20088;-86
2023/08/28 10:17:13;;;;;;;3.17;1.48;;;17.00;99.90;;;;;;5016229;28;20117;-86
2023/08/28 10:19:42;;;;;;;1.52;0.98;;;17.00;99.90;;;;;;5019844;28;20026;-87
2023/08/28 10:22:09;;;;;;;2.65;0.93;;;17.00;99.90;;;;;;5018637;28;20106;-86
2023/08/28 10:24:36;;;;;;;2.40;1.63;;;17.10;99.90;;;;;;5024116;28;20049;-86
2023/08/28 10:27:03;;;;;;;2.25;0.77;;;17.10;99.90;;;;;;5011659;28;20311;-84
2023/08/28 10:29:30;;;;;;;2.30;0.90;;;17.20;99.90;;;;;;5018504;28;20102;-87
2023/08/28 10:31:58;;;;;;;1.00;0.85;;;17.30;99.90;;;;;;5020190;28;20025;-86
2023/08/28 10:34:30;;;;;;;2.97;1.20;;;17.40;99.90;;;;;;5024697;28;20426;-86
2023/08/28 10:37:01;;;;;;;2.72;1.00;;;17.50;99.90;;;;;;5025103;28;20018;-87
2023/08/28 10:39:28;;;;;;;3.78;1.00;;;17.60;99.90;;;;;;5027091;28;20104;-87
2023/08/28 10:41:57;;;;;;;3.13;1.15;;;17.70;99.90;;;;;;5029339;28;20027;-88
2023/08/28 10:44:23;;;;;;;1.40;1.27;;;17.80;99.90;;;;;;5029451;28;20136;-86
2023/08/28 10:46:51;;;;;;;5.40;1.33;;;17.80;99.90;;;;;;5035294;28;20033;-87
2023/08/28 10:49:17;;;;;;;2.03;0.90;;;17.90;99.90;;;;;;5025795;28;20038;-87
2023/08/28 10:51:44;;;;;;;3.70;1.55;;;17.90;99.90;;;;;;5030367;28;20536;-86
2023/08/28 10:54:11;;;;;;;4.70;0.98;;;17.90;99.90;;;;;;5025464;28;20052;-86
2023/08/28 10:56:39;;;;;;;1.30;0.77;;;17.90;99.90;;;;;;5034127;28;20021;-87
2023/08/28 10:59:24;;;;;;;1.63;1.05;;;17.90;99.90;;;;;;5035055;28;20009;-86
2023/08/28 11:01:52;;;;;;;0.85;0.85;;;17.90;99.90;;;;;;5041984;28;20029;-87
2023/08/28 11:04:18;;;;;;;0.77;0.57;;;17.80;99.90;;;;;;5032032;28;20029;-86
2023/08/28 11:06:47;;;;;;;2.33;1.05;;;17.80;99.90;;;;;;5035808;28;20006;-86
2023/08/28 11:09:32;;;;;;;1.73;0.80;;;17.90;99.90;;;;;;5045520;28;20026;-85
2023/08/28 11:11:58;;;;;;;1.20;0.77;;;17.80;99.90;;;;;;5046262;28;20100;-85
2023/08/28 11:14:38;;;;;;;0.68;0.50;;;17.70;99.90;;;;;;5042904;28;20018;-86
2023/08/28 11:17:11;;;;;;;1.35;0.65;;;17.70;99.90;;;;;;5043445;28;20032;-86
2023/08/28 11:22:33;;;;;;;1.33;0.60;;;17.50;99.90;;;;;;5031524;28;20037;-84
2023/08/28 11:25:00;;;;;;;2.38;0.85;;;17.40;99.90;;;;;;5029415;28;20546;-86
2023/08/28 11:27:53;;;;;;;1.38;1.10;;;17.40;99.90;;;;;;5033856;28;20056;-86
2023/08/28 11:30:20;;;;;;;3.15;0.80;;;17.40;99.90;;;;;;5040972;28;20025;-86
2023/08/28 11:32:49;;;;;;;1.88;0.77;;;17.40;99.90;;;;;;5034272;28;20309;-86
2023/08/28 11:35:18;;;;;;;1.70;0.80;;;17.40;99.90;;;;;;5040817;28;20180;-86
2023/08/28 11:37:53;;;;;;;1.02;0.50;;;17.40;99.90;;;;;;5033990;28;20107;-85
2023/08/28 11:40:21;;;;;;;0.85;0.70;;;17.40;99.90;;;;;;5038398;28;20025;-86
2023/08/28 11:42:48;;;;;;;1.27;0.52;;;17.50;99.90;;;;;;5034049;28;20097;-86
2023/08/28 11:45:22;;;;;;;1.23;0.57;;;17.50;99.90;;;;;;5036353;28;20037;-86
2023/08/28 11:47:47;;;;;;;5.80;0.90;;;17.60;99.90;;;;;;5027805;28;20030;-85
2023/08/28 11:50:13;;;;;;;1.35;0.47;;;17.70;99.90;;;;;;5030567;28;20113;-86
2023/08/28 11:52:39;;;;;;;1.58;0.60;;;17.80;99.90;;;;;;5027200;28;20122;-86
2023/08/28 11:55:06;;;;;;;1.70;0.77;;;17.90;99.90;;;;;;5030281;28;20040;-86
2023/08/28 11:57:33;;;;;;;1.38;0.75;;;18.00;99.90;;;;;;5028050;28;20076;-86
2023/08/28 12:00:03;;;;;;;0.93;0.57;;;18.10;99.90;;;;;;5028135;28;20031;-86
2023/08/28 12:02:32;;;;;;;2.15;0.98;;;18.20;99.90;;;;;;5017841;28;20044;-87
2023/08/28 12:04:58;;;;;;;0.60;0.60;;;18.40;99.90;;;;;;5024048;28;20028;-86
2023/08/28 12:07:27;;;;;;;0.82;0.55;;;18.40;99.90;;;;;;5024029;28;20511;-86
2023/08/28 12:09:55;;;;;;;0.93;0.57;;;18.60;99.90;;;;;;5022533;28;20542;-86
2023/08/28 12:12:22;;;;;;;0.93;0.60;;;18.70;99.90;;;;;;5026657;28;20026;-86
2023/08/28 12:14:49;;;;;;;2.50;0.50;;;18.90;99.90;;;;;;5028160;28;20014;-84
2023/08/28 12:17:22;;;;;;;0.60;0.40;;;19.00;99.90;;;;;;5027267;28;20075;-86
2023/08/28 12:19:52;;;;;;;0.77;0.30;;;19.10;99.90;;;;;;5022761;28;20041;-87
2023/08/28 12:22:20;;;;;;;0.95;0.50;;;19.20;99.90;;;;;;5020919;28;20036;-86
2023/08/28 12:24:48;;;;;;;0.75;0.30;;;19.20;99.90;;;;;;5025826;28;20020;-87
2023/08/28 12:27:15;;;;;;;0.77;0.50;;;19.30;99.90;;;;;;5020428;28;20109;-87
2023/08/28 12:29:41;;;;;;;0.68;0.40;;;19.40;99.90;;;;;;5021606;28;20097;-86
2023/08/28 12:32:18;;;;;;;2.28;0.82;;;19.40;99.90;;;;;;5016727;28;20386;-87
2023/08/28 12:34:45;;;;;;;0.40;0.40;;;19.30;99.90;;;;;;5021387;28;20138;-87
2023/08/28 12:37:13;;;;;;;1.85;0.47;;;19.20;99.90;;;;;;5021603;28;20022;-87
2023/08/28 12:39:51;;;;;;;0.47;0.47;;;19.20;99.90;;;;;;5017924;28;20401;-88
2023/08/28 12:42:21;;;;;;;3.30;0.50;;;19.20;99.90;;;;;;5022950;28;20053;-87
2023/08/28 12:44:47;;;;;;;1.77;0.43;;;19.30;99.90;;;;;;5018899;28;20080;-87
2023/08/28 12:47:14;;;;;;;2.67;0.80;;;19.40;99.90;;;;;;5020717;28;20055;-87
2023/08/28 12:49:41;;;;;;;0.85;0.43;;;19.40;99.90;;;;;;5017310;28;20556;-85
2023/08/28 12:52:15;;;;;;;0.70;0.52;;;19.40;99.90;;;;;;5019106;28;20029;-87